createdAt,value
2023-01-13T00:01:51.758Z,92.10
2023-01-13T00:04:24.155Z,92.83
2023-01-13T00:06:50.817Z,91.55
2023-01-13T00:09:19.391Z,92.29
2023-01-13T00:11:45.968Z,93.35
2023-01-13T00:14:12.508Z,92.67
2023-01-13T00:16:38.963Z,94.72
2023-01-13T00:19:05.420Z,93.00
2023-01-13T00:21:32.110Z,92.02
2023-01-13T00:23:58.588Z,90.39
2023-01-13T00:26:26.923Z,89.03
2023-01-13T00:29:04.770Z,92.15
2023-01-13T00:31:32.462Z,89.79
2023-01-13T00:33:59.959Z,90.44
2023-01-13T00:36:27.051Z,90.72
2023-01-13T00:38:53.641Z,90.91
2023-01-13T00:41:21.623Z,91.34
2023-01-13T00:43:48.422Z,93.04
2023-01-13T00:46:20.217Z,91.78
2023-01-13T00:48:47.507Z,88.95
2023-01-13T00:51:29.378Z,87.98
2023-01-13T00:53:56.257Z,87.86
2023-01-13T00:56:39.314Z,89.65
2023-01-13T00:59:09.882Z,91.17
2023-01-13T01:01:36.584Z,91.49
2023-01-13T01:04:03.280Z,91.29
2023-01-13T01:06:29.750Z,88.79
2023-01-13T01:09:00.315Z,91.65
2023-01-13T01:11:28.109Z,91.93
2023-01-13T01:13:55.636Z,92.18
2023-01-13T01:16:26.261Z,93.79
2023-01-13T01:18:54.029Z,95.14
2023-01-13T01:21:21.336Z,92.96
2023-01-13T01:23:47.832Z,93.34
2023-01-13T01:26:16.048Z,95.44
2023-01-13T01:28:43.675Z,94.25
2023-01-13T01:31:12.929Z,96.16
2023-01-13T01:33:41.199Z,95.67
2023-01-13T01:36:08.201Z,96.68
2023-01-13T01:38:34.795Z,96.35
2023-01-13T01:41:02.549Z,93.18
2023-01-13T01:44:00.448Z,94.85
2023-01-13T01:46:27.240Z,94.01
2023-01-13T01:48:55.235Z,95.93
2023-01-13T01:51:21.928Z,96.39
2023-01-13T01:53:52.621Z,94.34
2023-01-13T01:56:19.178Z,94.69
2023-01-13T01:58:47.493Z,93.80
2023-01-13T02:01:16.262Z,94.20
2023-01-13T02:03:44.795Z,92.79
2023-01-13T02:06:18.647Z,94.36
2023-01-13T02:08:46.482Z,93.21
2023-01-13T02:11:49.183Z,92.87
2023-01-13T02:14:18.947Z,93.72
2023-01-13T02:17:01.846Z,91.25
2023-01-13T02:19:44.772Z,93.48
2023-01-13T02:22:29.721Z,92.31
2023-01-13T02:25:16.115Z,93.83
2023-01-13T02:28:01.524Z,94.98
2023-01-13T02:30:46.813Z,94.20
2023-01-13T02:33:19.419Z,93.88
2023-01-13T02:36:05.377Z,94.47
2023-01-13T02:38:49.028Z,95.18
2023-01-13T02:41:51.110Z,92.76
2023-01-13T02:44:22.378Z,92.16
2023-01-13T02:46:56.112Z,92.13
2023-01-13T02:49:34.493Z,93.60
2023-01-13T02:52:05.517Z,91.84
2023-01-13T02:54:33.348Z,93.36
2023-01-13T02:57:01.224Z,92.08
2023-01-13T02:59:30.335Z,93.45
2023-01-13T03:01:58.033Z,93.21
2023-01-13T03:04:43.295Z,91.81
2023-01-13T03:07:21.062Z,93.05
2023-01-13T03:09:59.091Z,94.01
2023-01-13T03:12:44.019Z,92.82
2023-01-13T03:15:17.241Z,92.09
2023-01-13T03:17:55.483Z,91.69
2023-01-13T03:20:26.178Z,93.95
2023-01-13T03:22:59.138Z,93.16
2023-01-13T03:25:29.975Z,94.02
2023-01-13T03:28:04.090Z,94.39
2023-01-13T03:30:42.644Z,94.26
2023-01-13T03:33:29.414Z,90.41
2023-01-13T03:35:58.924Z,92.12
2023-01-13T03:38:25.295Z,91.78
2023-01-13T03:41:07.511Z,91.57
2023-01-13T03:43:55.720Z,91.72
2023-01-13T03:46:27.004Z,89.65
2023-01-13T03:48:55.807Z,91.05
2023-01-13T03:51:26.247Z,93.62
2023-01-13T03:53:58.312Z,94.12
2023-01-13T03:56:27.744Z,94.51
2023-01-13T03:58:55.749Z,93.98
2023-01-13T04:01:25.829Z,94.32
2023-01-13T04:04:06.116Z,97.88
2023-01-13T04:06:47.818Z,99.67
2023-01-13T04:09:20.384Z,100.00
2023-01-13T04:11:51.773Z,99.96
2023-01-13T04:14:19.793Z,97.98
2023-01-13T04:16:48.672Z,99.16
2023-01-13T04:19:15.098Z,100.00
2023-01-13T04:21:41.525Z,100.00
2023-01-13T04:24:08.613Z,100.00
2023-01-13T04:26:36.072Z,100.00
2023-01-13T04:29:02.497Z,100.00
2023-01-13T04:31:28.968Z,100.00
2023-01-13T04:33:55.347Z,100.00
2023-01-13T04:36:27.535Z,98.90
2023-01-13T04:38:56.767Z,96.82
2023-01-13T04:41:24.275Z,97.16
2023-01-13T04:43:57.625Z,96.82
2023-01-13T04:46:36.169Z,99.18
2023-01-13T04:49:11.738Z,97.27
2023-01-13T04:51:49.056Z,98.58
2023-01-13T04:54:18.454Z,97.31
2023-01-13T04:56:44.835Z,98.49
2023-01-13T04:59:12.048Z,100.00
2023-01-13T05:01:39.867Z,99.77
2023-01-13T05:04:06.712Z,97.24
2023-01-13T05:06:33.475Z,97.04
2023-01-13T05:09:00.916Z,97.57
2023-01-13T05:11:45.740Z,98.78
2023-01-13T05:14:30.518Z,98.01
2023-01-13T05:17:03.424Z,95.29
2023-01-13T05:19:39.240Z,95.09
2023-01-13T05:22:26.202Z,96.41
2023-01-13T05:25:11.242Z,97.43
2023-01-13T05:27:37.571Z,99.89
2023-01-13T05:30:04.446Z,99.33
2023-01-13T05:32:31.108Z,99.14
2023-01-13T05:35:10.518Z,100.00
2023-01-13T05:37:38.097Z,100.00
2023-01-13T05:40:23.319Z,100.00
2023-01-13T05:43:18.512Z,100.00
2023-01-13T05:45:45.378Z,100.00
2023-01-13T05:48:11.710Z,100.00
2023-01-13T05:50:38.145Z,100.00
2023-01-13T05:53:05.111Z,100.00
2023-01-13T05:55:31.535Z,100.00
2023-01-13T05:57:58.125Z,100.00
2023-01-13T06:00:25.751Z,100.00
2023-01-13T06:02:54.220Z,100.00
2023-01-13T06:05:20.559Z,100.00
2023-01-13T06:07:47.026Z,100.00
2023-01-13T06:10:13.397Z,100.00
2023-01-13T06:12:44.056Z,100.00
2023-01-13T06:15:10.681Z,100.00
2023-01-13T06:17:37.028Z,100.00
2023-01-13T06:20:04.616Z,100.00
2023-01-13T06:22:32.943Z,100.00
2023-01-13T06:24:59.375Z,100.00
2023-01-13T06:27:26.001Z,100.00
2023-01-13T06:30:03.220Z,100.00
2023-01-13T06:32:34.661Z,100.00
2023-01-13T06:35:05.557Z,100.00
2023-01-13T06:37:33.254Z,100.00
2023-01-13T06:40:01.192Z,100.00
2023-01-13T06:42:47.019Z,100.00
2023-01-13T06:45:20.617Z,99.52
2023-01-13T06:47:48.091Z,99.78
2023-01-13T06:50:14.487Z,99.60
2023-01-13T06:52:40.844Z,99.06
2023-01-13T06:55:07.494Z,99.82
2023-01-13T06:57:33.840Z,98.69
2023-01-13T07:00:01.260Z,97.08
2023-01-13T07:02:28.301Z,96.51
2023-01-13T07:04:54.736Z,98.11
2023-01-13T07:07:21.073Z,94.17
2023-01-13T07:09:47.382Z,95.48
2023-01-13T07:12:13.713Z,98.97
2023-01-13T07:14:58.591Z,95.98
2023-01-13T07:17:27.971Z,98.40
2023-01-13T07:19:58.333Z,97.36
2023-01-13T07:22:25.122Z,95.97
2023-01-13T07:24:51.472Z,95.89
2023-01-13T07:27:19.025Z,96.11
2023-01-13T07:29:45.437Z,94.98
2023-01-13T07:32:11.768Z,98.58
2023-01-13T07:34:38.103Z,95.81
2023-01-13T07:37:04.453Z,94.48
2023-01-13T07:39:31.823Z,95.07
2023-01-13T07:42:16.705Z,94.78
2023-01-13T07:44:45.047Z,94.71
2023-01-13T07:47:11.365Z,94.38
2023-01-13T07:49:37.864Z,93.83
2023-01-13T07:52:04.429Z,94.71
2023-01-13T07:54:40.963Z,92.59
2023-01-13T07:57:07.808Z,93.68
2023-01-13T07:59:34.296Z,92.96
2023-01-13T08:02:12.898Z,93.77
2023-01-13T08:04:41.423Z,92.21
2023-01-13T08:07:08.075Z,92.37
2023-01-13T08:09:34.532Z,92.86
2023-01-13T08:12:19.396Z,92.26
2023-01-13T08:14:45.802Z,91.43
2023-01-13T08:17:20.376Z,89.98
2023-01-13T08:19:47.422Z,90.68
2023-01-13T08:22:13.768Z,90.70
2023-01-13T08:24:40.105Z,90.38
2023-01-13T08:27:12.310Z,91.11
2023-01-13T08:29:45.622Z,89.03
2023-01-13T08:32:13.054Z,90.20
2023-01-13T08:34:41.384Z,89.77
2023-01-13T08:37:07.970Z,87.88
2023-01-13T08:39:36.001Z,88.75
2023-01-13T08:42:04.540Z,86.44
2023-01-13T08:44:32.096Z,88.44
2023-01-13T08:47:02.632Z,88.31
2023-01-13T08:49:29.037Z,89.07
2023-01-13T08:51:55.394Z,87.13
2023-01-13T08:54:21.791Z,85.87
2023-01-13T08:56:54.085Z,85.22
2023-01-13T08:59:20.675Z,87.96
2023-01-13T09:01:47.218Z,89.17
2023-01-13T09:04:18.506Z,92.51
2023-01-13T09:06:52.668Z,91.87
2023-01-13T09:09:19.079Z,91.64
2023-01-13T09:12:05.833Z,89.47
2023-01-13T09:14:33.058Z,93.56
2023-01-13T09:17:13.401Z,92.90
2023-01-13T09:19:39.739Z,90.09
2023-01-13T09:22:06.388Z,91.82
2023-01-13T09:24:33.861Z,93.27
2023-01-13T09:27:00.213Z,92.40
2023-01-13T09:29:26.624Z,92.41
2023-01-13T09:31:54.171Z,97.22
2023-01-13T09:34:40.319Z,97.51
2023-01-13T09:37:07.022Z,97.48
2023-01-13T09:39:34.072Z,98.92
2023-01-13T09:42:42.102Z,98.58
2023-01-13T09:45:17.736Z,99.89
2023-01-13T09:47:51.902Z,97.86
2023-01-13T09:50:22.196Z,100.00
2023-01-13T09:52:52.633Z,95.40
2023-01-13T09:55:31.336Z,97.60
2023-01-13T09:57:57.789Z,96.88
2023-01-13T10:00:34.953Z,96.31
2023-01-13T10:03:22.523Z,92.54
2023-01-13T10:05:50.464Z,94.82
2023-01-13T10:08:21.836Z,93.27
2023-01-13T10:10:49.985Z,94.93
2023-01-13T10:13:20.369Z,95.56
2023-01-13T10:15:54.828Z,96.52
2023-01-13T10:18:28.089Z,96.56
2023-01-13T10:20:57.694Z,96.91
2023-01-13T10:23:27.068Z,97.40
2023-01-13T10:26:04.191Z,94.47
2023-01-13T10:28:30.530Z,97.78
2023-01-13T10:30:58.691Z,97.19
2023-01-13T10:33:28.351Z,99.03
2023-01-13T10:36:01.852Z,100.00
2023-01-13T10:38:30.423Z,99.54
2023-01-13T10:40:58.137Z,100.00
2023-01-13T10:43:27.284Z,100.00
2023-01-13T10:46:16.331Z,100.00
2023-01-13T10:48:51.216Z,100.00
2023-01-13T10:51:20.395Z,100.00
2023-01-13T10:53:46.894Z,100.00
2023-01-13T10:56:20.229Z,100.00
2023-01-13T10:58:47.235Z,100.00
2023-01-13T11:01:26.135Z,100.00
2023-01-13T11:04:01.830Z,100.00
2023-01-13T11:06:35.385Z,100.00
2023-01-13T11:09:19.110Z,100.00
2023-01-13T11:11:57.476Z,100.00
2023-01-13T11:14:33.078Z,100.00
2023-01-13T11:17:18.113Z,100.00
2023-01-13T11:19:55.035Z,100.00
2023-01-13T11:22:48.174Z,100.00
2023-01-13T11:25:23.079Z,100.00
2023-01-13T11:27:49.443Z,100.00
2023-01-13T11:30:19.108Z,100.00
2023-01-13T11:33:04.473Z,100.00
2023-01-13T11:35:34.350Z,100.00
2023-01-13T11:38:09.120Z,100.00
2023-01-13T11:40:46.045Z,100.00
2023-01-13T11:43:32.107Z,100.00
2023-01-13T11:45:59.829Z,100.00
2023-01-13T11:48:28.802Z,100.00
2023-01-13T11:51:17.061Z,100.00
2023-01-13T11:54:04.819Z,100.00
2023-01-13T11:56:32.116Z,100.00
2023-01-13T11:59:19.209Z,100.00
2023-01-13T12:01:45.735Z,100.00
2023-01-13T12:04:35.028Z,100.00
2023-01-13T12:07:12.751Z,100.00
2023-01-13T12:10:08.939Z,100.00
2023-01-13T12:12:41.409Z,100.00
2023-01-13T12:15:31.052Z,100.00
2023-01-13T12:18:05.710Z,100.00
2023-01-13T12:20:32.191Z,100.00
2023-01-13T12:23:03.756Z,100.00
2023-01-13T12:25:33.276Z,100.00
2023-01-13T12:28:02.598Z,100.00
2023-01-13T12:30:44.512Z,100.00
2023-01-13T12:33:18.913Z,100.00
2023-01-13T12:35:59.024Z,100.00
2023-01-13T12:38:35.785Z,100.00
2023-01-13T12:41:24.738Z,100.00
2023-01-13T12:44:11.454Z,100.00
2023-01-13T12:46:44.602Z,100.00
2023-01-13T12:49:37.547Z,100.00
2023-01-13T12:52:09.223Z,100.00
2023-01-13T12:54:42.493Z,100.00
2023-01-13T12:57:14.822Z,100.00
2023-01-13T12:59:41.526Z,100.00
2023-01-13T13:02:10.892Z,100.00
2023-01-13T13:04:49.494Z,100.00
2023-01-13T13:07:19.961Z,100.00
2023-01-13T13:09:52.567Z,100.00
2023-01-13T13:12:58.662Z,100.00
2023-01-13T13:15:35.446Z,100.00
2023-01-13T13:18:18.116Z,100.00
2023-01-13T13:21:14.697Z,100.00
2023-01-13T13:23:44.482Z,100.00
2023-01-13T13:26:20.121Z,100.00
2023-01-13T13:28:52.035Z,100.00
2023-01-13T13:31:26.573Z,100.00
2023-01-13T13:33:56.925Z,100.00
2023-01-13T13:36:44.854Z,100.00
2023-01-13T13:39:33.495Z,100.00
2023-01-13T13:42:31.080Z,100.00
2023-01-13T13:45:17.305Z,100.00
2023-01-13T13:47:43.850Z,100.00
2023-01-13T13:50:20.928Z,100.00
2023-01-13T13:52:56.084Z,100.00
2023-01-13T13:55:26.702Z,100.00
2023-01-13T13:57:55.973Z,100.00
2023-01-13T14:00:34.986Z,100.00
2023-01-13T14:03:06.592Z,100.00
2023-01-13T14:05:37.147Z,100.00
2023-01-13T14:08:10.555Z,100.00
2023-01-13T14:10:37.982Z,100.00
2023-01-13T14:13:23.382Z,100.00
2023-01-13T14:15:55.682Z,100.00
2023-01-13T14:18:22.634Z,100.00
2023-01-13T14:20:56.009Z,100.00
2023-01-13T14:23:25.356Z,100.00
2023-01-13T14:25:53.146Z,100.00
2023-01-13T14:28:24.514Z,100.00
2023-01-13T14:30:51.629Z,100.00
2023-01-13T14:33:22.058Z,100.00
2023-01-13T14:36:24.751Z,100.00
2023-01-13T14:39:03.148Z,100.00
2023-01-13T14:41:51.027Z,100.00
2023-01-13T14:44:26.909Z,100.00
2023-01-13T14:46:57.166Z,100.00
2023-01-13T14:49:26.068Z,100.00
2023-01-13T14:52:12.363Z,100.00
2023-01-13T14:54:44.717Z,100.00
2023-01-13T14:57:28.103Z,100.00
2023-01-13T15:00:23.775Z,100.00
2023-01-13T15:02:50.272Z,100.00
2023-01-13T15:05:19.650Z,100.00
2023-01-13T15:07:57.348Z,100.00
2023-01-13T15:10:31.252Z,100.00
2023-01-13T15:12:59.256Z,100.00
2023-01-13T15:15:28.323Z,100.00
2023-01-13T15:17:54.672Z,100.00
2023-01-13T15:20:21.979Z,100.00
2023-01-13T15:22:50.063Z,100.00
2023-01-13T15:25:16.641Z,100.00
2023-01-13T15:27:50.192Z,100.00
2023-01-13T15:30:21.421Z,100.00
2023-01-13T15:32:48.156Z,100.00
2023-01-13T15:35:15.481Z,100.00
2023-01-13T15:37:55.095Z,100.00
2023-01-13T15:40:26.325Z,100.00
2023-01-13T15:43:11.513Z,100.00
2023-01-13T15:45:56.886Z,100.00
2023-01-13T15:48:24.206Z,100.00
2023-01-13T15:50:51.671Z,100.00
2023-01-13T15:53:18.378Z,100.00
2023-01-13T15:55:47.145Z,100.00
2023-01-13T15:58:13.964Z,100.00
2023-01-13T16:00:40.932Z,100.00
2023-01-13T16:03:17.705Z,100.00
2023-01-13T16:05:45.371Z,100.00
2023-01-13T16:08:16.464Z,100.00
2023-01-13T16:10:44.712Z,100.00
2023-01-13T16:13:17.903Z,100.00
2023-01-13T16:15:50.167Z,100.00
2023-01-13T16:18:20.974Z,100.00
2023-01-13T16:20:52.924Z,100.00
2023-01-13T16:23:21.124Z,100.00
2023-01-13T16:25:52.205Z,100.00
2023-01-13T16:28:24.111Z,100.00
2023-01-13T16:30:53.772Z,100.00
2023-01-13T16:33:22.201Z,100.00
2023-01-13T16:36:10.970Z,100.00
2023-01-13T16:38:39.280Z,100.00
2023-01-13T16:41:07.054Z,100.00
2023-01-13T16:43:33.837Z,100.00
2023-01-13T16:46:00.350Z,100.00
2023-01-13T16:48:36.755Z,100.00
2023-01-13T16:51:05.212Z,100.00
2023-01-13T16:53:34.716Z,100.00
2023-01-13T16:56:02.199Z,100.00
2023-01-13T16:58:32.955Z,100.00
2023-01-13T17:00:59.507Z,100.00
2023-01-13T17:03:25.885Z,100.00
2023-01-13T17:05:54.279Z,100.00
2023-01-13T17:08:20.683Z,100.00
2023-01-13T17:10:48.506Z,100.00
2023-01-13T17:13:19.541Z,100.00
2023-01-13T17:15:49.928Z,100.00
2023-01-13T17:18:18.417Z,100.00
2023-01-13T17:20:45.801Z,100.00
2023-01-13T17:23:18.158Z,100.00
2023-01-13T17:25:44.479Z,100.00
2023-01-13T17:28:11.863Z,100.00
2023-01-13T17:30:40.308Z,100.00
2023-01-13T17:33:15.024Z,99.62
2023-01-13T17:35:42.501Z,99.57
2023-01-13T17:38:19.113Z,96.48
2023-01-13T17:40:45.536Z,96.55
2023-01-13T17:43:12.913Z,95.17
2023-01-13T17:45:44.656Z,93.22
2023-01-13T17:48:12.606Z,96.14
2023-01-13T17:50:46.722Z,96.11
2023-01-13T17:53:13.049Z,95.37
2023-01-13T17:55:40.480Z,97.25
2023-01-13T17:58:06.807Z,95.41
2023-01-13T18:00:33.811Z,96.31
2023-01-13T18:03:00.301Z,95.87
2023-01-13T18:05:27.941Z,96.59
2023-01-13T18:07:54.260Z,95.79
2023-01-13T18:10:20.651Z,98.04
2023-01-13T18:12:47.010Z,97.37
2023-01-13T18:15:13.430Z,97.18
2023-01-13T18:17:39.798Z,97.36
2023-01-13T18:20:24.597Z,95.82
2023-01-13T18:23:10.811Z,100.00
2023-01-13T18:25:58.025Z,96.00
2023-01-13T18:28:24.425Z,99.10
2023-01-13T18:30:50.997Z,98.04
2023-01-13T18:33:17.563Z,99.53
2023-01-13T18:35:43.891Z,98.54
2023-01-13T18:38:22.640Z,99.46
2023-01-13T18:40:48.978Z,98.66
2023-01-13T18:43:17.424Z,96.98
2023-01-13T18:45:44.845Z,98.95
2023-01-13T18:48:12.284Z,98.10
2023-01-13T18:50:38.603Z,98.89
2023-01-13T18:53:04.948Z,98.21
2023-01-13T18:55:31.281Z,99.17
2023-01-13T18:57:58.054Z,100.00
2023-01-13T19:00:25.402Z,97.84
2023-01-13T19:05:32.706Z,99.97
2023-01-13T19:07:59.538Z,99.64
2023-01-13T19:10:27.954Z,99.69
2023-01-13T19:12:54.324Z,98.36
2023-01-13T19:15:20.638Z,100.00
2023-01-13T19:17:55.158Z,100.00
2023-01-13T19:20:22.329Z,100.00
2023-01-13T19:22:54.406Z,99.92
2023-01-13T19:25:20.828Z,100.00
2023-01-13T19:27:47.265Z,100.00
2023-01-13T19:30:13.903Z,100.00
2023-01-13T19:32:40.243Z,100.00
2023-01-13T19:35:07.260Z,100.00
2023-01-13T19:37:34.265Z,100.00
2023-01-13T19:40:00.732Z,100.00
2023-01-13T19:42:46.595Z,100.00
2023-01-13T19:45:26.625Z,100.00
2023-01-13T19:47:53.133Z,100.00
2023-01-13T19:50:19.575Z,100.00
2023-01-13T19:52:45.981Z,100.00
2023-01-13T19:55:12.620Z,100.00
2023-01-13T19:57:39.911Z,99.88
2023-01-13T20:00:08.185Z,100.00
2023-01-13T20:02:36.627Z,100.00
2023-01-13T20:05:05.785Z,100.00
2023-01-13T20:07:33.486Z,100.00
2023-01-13T20:10:01.723Z,100.00
2023-01-13T20:12:29.134Z,100.00
2023-01-13T20:14:58.274Z,100.00
2023-01-13T20:17:26.792Z,100.00
2023-01-13T20:19:54.482Z,100.00
2023-01-13T20:22:21.167Z,100.00
2023-01-13T20:24:54.906Z,100.00
2023-01-13T20:27:22.445Z,100.00
2023-01-13T20:29:48.867Z,100.00
2023-01-13T20:32:15.277Z,100.00
2023-01-13T20:34:41.627Z,100.00
2023-01-13T20:37:08.010Z,100.00
2023-01-13T20:39:35.996Z,100.00
2023-01-13T20:42:24.336Z,100.00
2023-01-13T20:44:50.682Z,100.00
2023-01-13T20:47:18.176Z,100.00
2023-01-13T20:49:45.614Z,100.00
2023-01-13T20:52:14.079Z,100.00
2023-01-13T20:54:41.814Z,100.00
2023-01-13T20:57:10.018Z,100.00
2023-01-13T20:59:39.497Z,100.00
2023-01-13T21:02:10.404Z,100.00
2023-01-13T21:04:44.773Z,100.00
2023-01-13T21:07:11.353Z,100.00
2023-01-13T21:09:37.912Z,100.00
2023-01-13T21:12:23.423Z,100.00
2023-01-13T21:15:08.584Z,100.00
2023-01-13T21:18:10.111Z,100.00
2023-01-13T21:20:39.325Z,100.00
2023-01-13T21:23:06.498Z,100.00
2023-01-13T21:25:35.383Z,100.00
2023-01-13T21:28:10.451Z,100.00
2023-01-13T21:30:38.601Z,100.00
2023-01-13T21:33:06.200Z,100.00
2023-01-13T21:35:32.666Z,100.00
2023-01-13T21:38:00.201Z,100.00
2023-01-13T21:40:26.903Z,100.00
2023-01-13T21:43:12.010Z,100.00
2023-01-13T21:45:57.937Z,100.00
2023-01-13T21:48:24.447Z,100.00
2023-01-13T21:50:50.938Z,100.00
2023-01-13T21:53:17.644Z,100.00
2023-01-13T21:55:45.526Z,100.00
2023-01-13T21:58:15.335Z,100.00
2023-01-13T22:00:42.771Z,100.00
2023-01-13T22:03:09.934Z,100.00
2023-01-13T22:05:36.785Z,100.00
2023-01-13T22:08:03.274Z,100.00
2023-01-13T22:10:31.754Z,100.00
2023-01-13T22:12:59.245Z,100.00
2023-01-13T22:15:27.296Z,100.00
2023-01-13T22:17:54.427Z,100.00
2023-01-13T22:20:22.234Z,100.00
2023-01-13T22:22:48.970Z,100.00
2023-01-13T22:25:16.122Z,99.57
2023-01-13T22:27:44.434Z,100.00
2023-01-13T22:30:12.549Z,100.00
2023-01-13T22:32:39.065Z,100.00
2023-01-13T22:35:06.409Z,98.66
2023-01-13T22:37:32.783Z,99.90
2023-01-13T22:39:59.154Z,98.99
2023-01-13T22:42:25.575Z,98.17
2023-01-13T22:44:52.073Z,96.91
2023-01-13T22:47:18.420Z,96.49
2023-01-13T22:49:47.796Z,95.36
2023-01-13T22:52:14.779Z,98.81
2023-01-13T22:54:41.306Z,97.10
2023-01-13T22:57:07.634Z,95.75
2023-01-13T22:59:34.131Z,97.20
2023-01-13T23:02:00.449Z,96.56
2023-01-13T23:04:26.803Z,98.46
2023-01-13T23:06:53.177Z,97.51
2023-01-13T23:09:19.496Z,96.02
2023-01-13T23:11:47.783Z,96.98
2023-01-13T23:14:14.320Z,95.21
2023-01-13T23:16:40.791Z,95.62
2023-01-13T23:19:07.465Z,97.08
2023-01-13T23:21:36.157Z,95.13
2023-01-13T23:24:05.656Z,96.32
2023-01-13T23:26:32.101Z,95.14
2023-01-13T23:28:59.338Z,92.11
2023-01-13T23:31:25.748Z,97.07
2023-01-13T23:33:52.099Z,98.96
2023-01-13T23:36:20.199Z,96.83
2023-01-13T23:38:48.877Z,94.13
2023-01-13T23:41:16.407Z,96.09
2023-01-13T23:43:42.925Z,97.06
2023-01-13T23:46:10.882Z,96.90
2023-01-13T23:48:38.585Z,96.74
2023-01-13T23:51:10.259Z,96.94
2023-01-13T23:53:39.961Z,99.60
2023-01-13T23:56:07.359Z,99.62
2023-01-13T23:58:34.795Z,100.00
